RJGGRJAA

Guest
Details From RJGG - CHUBU CENTRAIR INTL
To RJAA - NARITA INTL
Flight Number -
Tags decoded
Created
Modified
Stats Distance 215 nm / 398 km
Max Altitude 0 ft / 0 m
Waypoints 8
Social Downloads 1
Likes 0
Share VATSIM

Download

Looking for another format? Having issues loading an existing format? Contact us
Advertisement - Login to hide

Notes

Requested: RJGG LHE SAGRA XAC SPENS CAVIA WESTN RJAA

Route

RJGG LHE SAGRA XAC SPENS CAVIA WESTN RJAA

ID Type Via Altitude Latitude Longitude Leg Dist Tot Dist Heading (true) Name
O RJGG APT - 0 ft / 0 m 34.85841˚ 136.80541˚ - 0 nm - CHUBU CENTRAIR INTL
LHE VOR - 0 ft / 0 m 34.74787˚ 137.68066˚ 43 nm 43 nm 98° / 99° HAMAMATSU VOR-DME
SAGRA FIX - 0 ft / 0 m 34.73247˚ 138.43076˚ 37 nm 80 nm 91° / 92° -
XAC VOR - 0 ft / 0 m 34.71225˚ 139.41402˚ 48 nm 129 nm 91° / 92° OSHIMA VORTAC
SPENS FIX - 0 ft / 0 m 34.74021˚ 139.64031˚ 11 nm 140 nm 81° / 82° -
CAVIA FIX - 0 ft / 0 m 34.89190˚ 139.88981˚ 15 nm 155 nm 53° / 54° -
WESTN FIX - 0 ft / 0 m 34.95542˚ 139.99442˚ 6 nm 162 nm 53° / 54° -
O RJAA APT - 0 ft / 0 m 35.77655˚ 140.38277˚ 52 nm 215 nm 21° / 21° NARITA INTL

Altitude Profile

Advertisement - Login to hide

Weather


0- 5 10 15 20 25 30 35+ Temperature / ° C

Clouds and Precipitation
Forecast for 2017-12-15 00:00 UTC. Updated 2 hours ago

Ground ~20,000 ft ~40,000 ft Winds

RJGG

Details ICAO RJGG (NGO)
Name CHUBU CENTRAIR INTL
Region Japan
Timezone Asia/Tokyo (UTC+9.0)
Stats Elevation 15 ft / 5 m (AMSL)
Location 34.858414° 136.805408°
Runways 1
Magnetic Variation 7.581° W

METAR

RJGG 142100Z 01008KT 9999 FEW020 04/M01 Q1025 NOSIG

Decode

TAF

TAF RJGG 141705Z 1418/1600 36012KT 9999 FEW020

Decode

Departure Runways

ID Width Length Bearing (true) Bearing (mag) Surface Threshold Offset Overrun Length
18 197 ft / 60 m 11,511 ft / 3,509 m 168.81° 176.39° Asphalt 0 ft / 0 m 197 ft / 60 m
36 197 ft / 60 m 11,511 ft / 3,509 m 348.81° 356.39° Asphalt 0 ft / 0 m 197 ft / 60 m

RJAA

Details ICAO RJAA (NRT)
Name NARITA INTL
Region Japan
Timezone Asia/Tokyo (UTC+9.0)
Stats Elevation 141 ft / 43 m (AMSL)
Location 35.776552° 140.382770°
Runways 2
Magnetic Variation 7.405° W

METAR

RJAA 142100Z VRB02KT 9999 FEW040 SCT170 BKN/// M00/M03 Q1025 NOSIG

Decode

TAF

TAF RJAA 141705Z 1418/1600 33004KT 9999 FEW030= TAF RJBB 141707Z 1418/1600 03008KT 9999 FEW020 BKN040 BECMG 1509/1512 19005KT

Decode

Destination Runways

ID Width Length Bearing (true) Bearing (mag) Surface Threshold Offset Overrun Length
16L 196 ft / 60 m 7,162 ft / 2,183 m 149.61° 157.02° Asphalt 190 ft / 58 m 0 ft / 0 m
16R 196 ft / 60 m 13,142 ft / 4,006 m 149.61° 157.02° Asphalt 0 ft / 0 m 410 ft / 125 m
34L 196 ft / 60 m 13,142 ft / 4,006 m 329.62° 337.03° Asphalt 0 ft / 0 m 415 ft / 126 m
34R 196 ft / 60 m 7,162 ft / 2,183 m 329.62° 337.03° Asphalt 190 ft / 58 m 0 ft / 0 m

Approach Navaids

Runway Type Ident Frequency Range Bearing (true) Bearing (mag) Slope Elevation
16L Localiser ITM 110.70 MHz 18 nm / 33 km 149.62° 157.02° - 141 ft / 43 m (AMSL)
16L Glidescope ITM 110.70 MHz 10 nm / 19 km 149.62° 157.02° 3.00° 141 ft / 43 m (AMSL)
16L DME ITM 110.70 MHz 18 nm / 33 km - - - 145 ft / 44 m (AMSL)
16R Localiser IKF 111.50 MHz 18 nm / 33 km 149.63° 157.03° - 141 ft / 43 m (AMSL)
16R Glidescope IKF 111.50 MHz 10 nm / 19 km 149.62° 157.02° 3.00° 141 ft / 43 m (AMSL)
16R DME IKF 111.50 MHz 18 nm / 33 km - - - 145 ft / 44 m (AMSL)
34L Localiser IYQ 111.90 MHz 18 nm / 33 km 329.61° 337.01° - 141 ft / 43 m (AMSL)
34L Glidescope IYQ 111.90 MHz 10 nm / 19 km 329.62° 337.02° 3.00° 141 ft / 43 m (AMSL)
34L DME IYQ 111.90 MHz 18 nm / 33 km - - - 153 ft / 47 m (AMSL)
34R Localiser ITJ 110.90 MHz 18 nm / 33 km 329.62° 337.02° - 141 ft / 43 m (AMSL)
34R Glidescope ITJ 110.90 MHz 10 nm / 19 km 329.62° 337.02° 3.00° 141 ft / 43 m (AMSL)
34R DME ITJ 110.90 MHz 18 nm / 33 km - - - 148 ft / 45 m (AMSL)

Popular Alternatives